createdAt,value
2022-12-11T00:01:55.843Z,11.10
2022-12-11T00:04:25.462Z,11.53
2022-12-11T00:06:54.840Z,11.93
2022-12-11T00:09:26.456Z,12.36
2022-12-11T00:11:56.208Z,12.72
2022-12-11T00:14:25.880Z,13.11
2022-12-11T00:16:55.007Z,13.50
2022-12-11T00:19:24.805Z,13.74
2022-12-11T00:21:53.830Z,13.95
2022-12-11T00:24:22.821Z,14.06
2022-12-11T00:26:54.027Z,14.27
2022-12-11T00:29:23.143Z,14.36
2022-12-11T00:31:52.235Z,14.39
2022-12-11T00:34:22.053Z,14.39
2022-12-11T00:36:51.694Z,14.32
2022-12-11T00:39:20.951Z,14.34
2022-12-11T00:41:50.605Z,14.43
2022-12-11T00:44:22.026Z,14.47
2022-12-11T00:46:51.396Z,14.44
2022-12-11T00:49:20.605Z,14.44
2022-12-11T00:51:49.642Z,14.41
2022-12-11T00:54:18.872Z,14.38
2022-12-11T00:56:48.618Z,14.36
2022-12-11T00:59:18.249Z,14.31
2022-12-11T01:01:48.862Z,14.20
2022-12-11T01:04:18.654Z,14.04
2022-12-11T01:06:47.868Z,13.97
2022-12-11T01:09:34.776Z,13.92
2022-12-11T01:12:04.019Z,13.88
2022-12-11T01:14:33.808Z,13.79
2022-12-11T01:17:05.224Z,13.71
2022-12-11T01:19:34.607Z,13.69
2022-12-11T01:22:04.268Z,13.81
2022-12-11T01:24:33.281Z,13.77
2022-12-11T01:27:02.905Z,13.88
2022-12-11T01:29:33.030Z,13.94
2022-12-11T01:32:02.225Z,14.03
2022-12-11T01:34:33.618Z,14.02
2022-12-11T01:37:02.685Z,14.05
2022-12-11T01:39:31.900Z,14.23
2022-12-11T01:42:02.947Z,14.28
2022-12-11T01:45:09.483Z,14.35
2022-12-11T01:47:38.807Z,14.30
2022-12-11T01:50:10.384Z,14.26
2022-12-11T01:52:39.565Z,14.22
2022-12-11T01:55:10.424Z,14.23
2022-12-11T01:57:43.662Z,14.16
2022-12-11T02:00:13.942Z,14.23
2022-12-11T02:02:43.274Z,14.29
2022-12-11T02:05:15.785Z,14.26
2022-12-11T02:07:49.961Z,14.30
2022-12-11T02:10:19.205Z,14.36
2022-12-11T02:12:57.529Z,14.35
2022-12-11T02:15:35.085Z,14.42
2022-12-11T02:18:15.725Z,14.45
2022-12-11T02:20:55.276Z,14.35
2022-12-11T02:23:44.688Z,14.30
2022-12-11T02:26:34.103Z,14.32
2022-12-11T02:29:08.825Z,14.27
2022-12-11T02:31:43.382Z,14.20
2022-12-11T02:34:19.705Z,14.24
2022-12-11T02:36:53.989Z,14.28
2022-12-11T02:39:23.332Z,14.28
2022-12-11T02:41:54.171Z,14.18
2022-12-11T02:44:29.181Z,14.17
2022-12-11T02:46:59.799Z,14.20
2022-12-11T02:49:30.235Z,14.21
2022-12-11T02:52:03.236Z,14.18
2022-12-11T02:54:34.884Z,14.08
2022-12-11T02:57:10.120Z,14.09
2022-12-11T02:59:43.197Z,14.02
2022-12-11T03:02:14.167Z,14.02
2022-12-11T03:04:45.234Z,14.02
2022-12-11T03:07:17.682Z,14.02
2022-12-11T03:09:48.287Z,14.08
2022-12-11T03:12:20.903Z,14.13
2022-12-11T03:14:52.427Z,14.11
2022-12-11T03:17:25.051Z,14.14
2022-12-11T03:20:04.176Z,14.10
2022-12-11T03:22:39.865Z,14.10
2022-12-11T03:25:12.279Z,14.03
2022-12-11T03:27:48.302Z,14.02
2022-12-11T03:30:20.926Z,13.91
2022-12-11T03:32:54.576Z,13.87
2022-12-11T03:35:28.004Z,13.92
2022-12-11T03:38:00.117Z,13.86
2022-12-11T03:40:33.420Z,13.89
2022-12-11T03:43:06.623Z,13.95
2022-12-11T03:45:39.672Z,14.09
2022-12-11T03:48:11.532Z,14.23
2022-12-11T03:50:42.318Z,14.28
2022-12-11T03:53:12.051Z,14.28
2022-12-11T03:55:43.358Z,14.43
2022-12-11T03:58:12.633Z,14.43
2022-12-11T04:00:43.205Z,14.48
2022-12-11T04:03:15.190Z,14.46
2022-12-11T04:05:47.334Z,14.48
2022-12-11T04:08:17.617Z,14.46
2022-12-11T04:10:46.837Z,14.44
2022-12-11T04:13:16.208Z,14.48
2022-12-11T04:15:45.851Z,14.33
2022-12-11T04:18:32.166Z,14.38
2022-12-11T04:21:18.561Z,14.43
2022-12-11T04:24:04.908Z,14.51
2022-12-11T04:26:35.569Z,14.50
2022-12-11T04:29:05.398Z,14.32
2022-12-11T04:31:36.155Z,14.31
2022-12-11T04:34:05.888Z,14.32
2022-12-11T04:36:34.874Z,14.28
2022-12-11T04:39:04.046Z,14.18
2022-12-11T04:41:33.587Z,14.12
2022-12-11T04:44:02.886Z,14.13
2022-12-11T04:46:32.150Z,14.11
2022-12-11T04:49:03.359Z,14.02
2022-12-11T04:51:32.556Z,14.07
2022-12-11T04:54:01.732Z,14.12
2022-12-11T04:56:30.815Z,14.15
2022-12-11T04:58:59.909Z,14.15
2022-12-11T05:01:28.866Z,14.05
2022-12-11T05:03:58.086Z,13.89
2022-12-11T05:06:29.443Z,13.92
2022-12-11T05:09:00.195Z,13.92
2022-12-11T05:11:33.779Z,13.90
2022-12-11T05:14:02.743Z,13.87
2022-12-11T05:16:31.932Z,13.87
2022-12-11T05:19:01.102Z,13.87
2022-12-11T05:21:34.987Z,13.90
2022-12-11T05:24:04.828Z,13.94
2022-12-11T05:26:34.595Z,13.92
2022-12-11T05:29:03.685Z,13.90
2022-12-11T05:31:32.999Z,13.95
2022-12-11T05:34:02.682Z,13.93
2022-12-11T05:36:35.317Z,13.95
2022-12-11T05:39:06.220Z,13.88
2022-12-11T05:41:35.749Z,13.82
2022-12-11T05:44:04.883Z,13.85
2022-12-11T05:46:34.050Z,13.88
2022-12-11T05:49:04.110Z,13.85
2022-12-11T05:51:35.536Z,13.88
2022-12-11T05:54:05.528Z,13.89
2022-12-11T05:56:36.556Z,13.90
2022-12-11T05:59:08.084Z,13.90
2022-12-11T06:01:39.563Z,13.84
2022-12-11T06:04:11.690Z,13.79
2022-12-11T06:06:44.564Z,13.75
2022-12-11T06:09:16.747Z,13.62
2022-12-11T06:11:45.773Z,13.52
2022-12-11T06:14:14.770Z,13.34
2022-12-11T06:16:44.598Z,13.31
2022-12-11T06:19:17.136Z,13.39
2022-12-11T06:21:51.008Z,13.37
2022-12-11T06:24:20.120Z,13.37
2022-12-11T06:26:49.255Z,13.52
2022-12-11T06:29:18.563Z,13.44
2022-12-11T06:49:32.105Z,14.45
2022-12-11T06:52:01.827Z,14.23
2022-12-11T06:54:31.492Z,14.13
2022-12-11T06:57:00.534Z,14.10
2022-12-11T06:59:29.546Z,13.89
2022-12-11T07:01:58.587Z,13.92
2022-12-11T07:04:27.948Z,13.92
2022-12-11T07:06:58.748Z,14.09
2022-12-11T07:09:27.942Z,14.09
2022-12-11T07:11:57.224Z,14.34
2022-12-11T07:14:26.252Z,14.61
2022-12-11T07:16:55.378Z,14.88
2022-12-11T07:19:24.431Z,15.25
2022-12-11T07:21:53.447Z,15.53
2022-12-11T07:24:24.604Z,15.75
2022-12-11T07:26:54.301Z,16.17
2022-12-11T07:29:23.542Z,16.40
2022-12-11T07:31:53.264Z,16.74
2022-12-11T07:34:23.616Z,17.15
2022-12-11T07:36:53.022Z,17.49
2022-12-11T07:39:23.734Z,17.76
2022-12-11T07:41:52.820Z,17.96
2022-12-11T07:44:22.764Z,17.95
2022-12-11T07:46:51.886Z,17.75
2022-12-11T07:49:21.321Z,17.80
2022-12-11T07:51:50.374Z,17.95
2022-12-11T07:54:21.311Z,17.87
2022-12-11T07:56:53.890Z,17.46
2022-12-11T07:59:23.526Z,17.26
2022-12-11T08:01:52.603Z,17.04
2022-12-11T08:04:21.979Z,16.94
2022-12-11T08:06:51.750Z,16.83
2022-12-11T08:09:22.891Z,16.74
2022-12-11T08:11:53.403Z,16.55
2022-12-11T08:14:23.166Z,16.58
2022-12-11T08:16:52.543Z,16.84
2022-12-11T08:19:21.944Z,16.90
2022-12-11T08:21:51.026Z,17.08
2022-12-11T08:24:21.259Z,17.07
2022-12-11T08:26:50.736Z,16.99
2022-12-11T08:29:21.265Z,16.79
2022-12-11T08:31:50.536Z,16.64
2022-12-11T08:34:20.311Z,16.42
2022-12-11T08:36:49.462Z,16.30
2022-12-11T08:39:18.567Z,16.09
2022-12-11T08:41:47.837Z,15.95
2022-12-11T08:44:17.205Z,15.88
2022-12-11T08:46:48.392Z,15.78
2022-12-11T08:49:17.762Z,15.66
2022-12-11T08:51:46.723Z,15.52
2022-12-11T08:54:16.476Z,15.53
2022-12-11T08:56:45.784Z,15.43
2022-12-11T08:59:14.947Z,15.52
2022-12-11T09:01:44.658Z,15.52
2022-12-11T09:04:16.479Z,15.44
2022-12-11T09:06:46.283Z,15.57
2022-12-11T09:09:16.447Z,15.60
2022-12-11T09:11:45.623Z,15.78
2022-12-11T09:14:16.312Z,16.03
2022-12-11T09:16:45.352Z,16.22
2022-12-11T09:19:18.633Z,16.19
2022-12-11T09:21:47.770Z,16.20
2022-12-11T09:24:19.864Z,16.49
2022-12-11T09:26:49.119Z,16.71
2022-12-11T09:29:18.382Z,16.84
2022-12-11T09:31:49.820Z,16.94
2022-12-11T09:34:23.630Z,16.83
2022-12-11T09:36:56.674Z,16.80
2022-12-11T09:39:26.403Z,16.82
2022-12-11T09:42:01.779Z,16.79
2022-12-11T09:44:36.959Z,16.68
2022-12-11T09:47:27.975Z,16.53
2022-12-11T09:50:08.475Z,16.36
2022-12-11T09:52:42.189Z,16.25
2022-12-11T09:55:24.338Z,16.17
2022-12-11T09:58:03.279Z,16.17
2022-12-11T10:00:39.006Z,16.09
2022-12-11T10:03:27.964Z,16.01
2022-12-11T10:06:05.334Z,15.93
2022-12-11T10:08:40.576Z,15.89
2022-12-11T10:11:31.845Z,15.78
2022-12-11T10:14:07.753Z,15.80
2022-12-11T10:16:41.047Z,15.58
2022-12-11T10:19:18.408Z,15.26
2022-12-11T10:21:51.193Z,15.23
2022-12-11T10:24:59.386Z,15.16
2022-12-11T10:27:19.545Z,15.04
2022-12-11T10:29:50.534Z,14.96
2022-12-11T10:32:25.921Z,15.02
2022-12-11T10:35:02.652Z,15.00
2022-12-11T10:37:33.473Z,15.00
2022-12-11T10:40:02.488Z,14.88
2022-12-11T10:42:33.093Z,14.86
2022-12-11T10:45:03.594Z,14.85
2022-12-11T10:47:34.283Z,14.82
2022-12-11T10:50:05.013Z,14.68
2022-12-11T10:52:39.277Z,14.57
2022-12-11T10:55:19.479Z,14.27
2022-12-11T10:57:57.057Z,14.09
2022-12-11T11:00:34.508Z,13.81
2022-12-11T11:03:05.063Z,13.65
2022-12-11T11:05:36.717Z,13.43
2022-12-11T11:08:15.335Z,13.15
2022-12-11T11:10:56.480Z,12.83
2022-12-11T11:13:30.760Z,12.80
2022-12-11T11:16:06.748Z,12.62
2022-12-11T11:18:36.411Z,12.37
2022-12-11T11:21:05.951Z,12.28
2022-12-11T11:23:42.581Z,12.29
2022-12-11T11:26:15.273Z,12.17
2022-12-11T11:28:50.164Z,12.22
2022-12-11T11:31:21.756Z,11.93
2022-12-11T11:33:58.142Z,11.81
2022-12-11T11:36:28.692Z,11.64
2022-12-11T11:39:21.795Z,11.25
2022-12-11T11:41:57.416Z,10.77
2022-12-11T11:44:32.351Z,10.45
2022-12-11T11:47:08.142Z,10.06
2022-12-11T11:49:50.359Z,9.95
2022-12-11T11:52:27.751Z,9.66
2022-12-11T11:55:10.425Z,9.60
2022-12-11T11:57:47.434Z,9.47
2022-12-11T12:00:23.242Z,9.31
2022-12-11T12:02:56.165Z,9.07
2022-12-11T12:05:28.894Z,9.02
2022-12-11T12:08:08.969Z,8.95
2022-12-11T12:10:50.727Z,8.79
2022-12-11T12:13:49.102Z,8.61
2022-12-11T12:16:52.377Z,8.34
2022-12-11T12:19:29.830Z,8.15
2022-12-11T12:22:07.998Z,8.03
2022-12-11T12:24:49.383Z,8.00
2022-12-11T12:30:22.340Z,7.78
2022-12-11T12:33:08.968Z,7.75
2022-12-11T12:35:41.824Z,7.67
2022-12-11T12:38:23.561Z,7.75
2022-12-11T12:41:05.571Z,7.61
2022-12-11T12:43:55.215Z,7.30
2022-12-11T12:46:40.986Z,7.31
2022-12-11T12:49:14.396Z,7.17
2022-12-11T12:51:45.210Z,7.12
2022-12-11T12:54:19.361Z,6.92
2022-12-11T12:56:50.068Z,6.90
2022-12-11T12:59:26.384Z,6.93
2022-12-11T13:01:58.950Z,6.86
2022-12-11T13:04:55.974Z,6.85
2022-12-11T13:07:31.216Z,6.86
2022-12-11T13:10:08.720Z,6.83
2022-12-11T13:12:46.841Z,6.79
2022-12-11T13:15:39.281Z,6.76
2022-12-11T13:18:33.788Z,6.59
2022-12-11T13:21:28.178Z,6.62
2022-12-11T13:23:58.032Z,6.55
2022-12-11T13:26:31.844Z,6.49
2022-12-11T13:29:01.219Z,6.39
2022-12-11T13:31:35.807Z,6.34
2022-12-11T13:34:18.936Z,6.25
2022-12-11T13:36:52.200Z,6.14
2022-12-11T13:39:25.086Z,6.23
2022-12-11T13:41:57.107Z,6.20
2022-12-11T13:44:30.009Z,6.13
2022-12-11T13:47:02.886Z,6.16
2022-12-11T13:49:37.478Z,6.16
2022-12-11T13:52:07.755Z,6.09
2022-12-11T13:54:37.944Z,5.95
2022-12-11T13:57:19.001Z,5.91
2022-12-11T13:59:50.729Z,5.77
2022-12-11T14:02:25.424Z,5.63
2022-12-11T14:04:58.384Z,5.48
2022-12-11T14:07:31.823Z,5.30
2022-12-11T14:10:04.564Z,5.14
2022-12-11T14:12:34.892Z,5.17
2022-12-11T14:15:05.799Z,5.10
2022-12-11T14:17:38.199Z,5.06
2022-12-11T14:20:10.078Z,5.06
2022-12-11T14:22:39.724Z,4.99
2022-12-11T14:25:22.560Z,4.96
2022-12-11T14:27:54.490Z,4.84
2022-12-11T14:30:25.416Z,4.84
2022-12-11T14:32:59.988Z,4.80
2022-12-11T14:35:35.652Z,4.87
2022-12-11T14:38:16.302Z,4.74
2022-12-11T14:40:49.017Z,4.64
2022-12-11T14:43:24.884Z,4.62
2022-12-11T14:45:59.668Z,4.69
2022-12-11T14:48:35.206Z,4.61
2022-12-11T14:51:10.339Z,4.69
2022-12-11T14:53:44.206Z,4.80
2022-12-11T14:56:19.610Z,4.81
2022-12-11T14:58:54.668Z,4.86
2022-12-11T15:01:26.053Z,4.87
2022-12-11T15:04:08.482Z,4.82
2022-12-11T15:06:46.498Z,4.97
2022-12-11T15:09:23.049Z,4.92
2022-12-11T15:11:53.200Z,4.94
2022-12-11T15:14:24.642Z,4.83
2022-12-11T15:16:57.886Z,4.78
2022-12-11T15:19:30.928Z,4.67
2022-12-11T15:22:03.418Z,4.77
2022-12-11T15:24:41.648Z,4.57
2022-12-11T15:27:24.942Z,4.69
2022-12-11T15:29:54.256Z,4.57
2022-12-11T15:32:23.410Z,4.53
2022-12-11T15:34:55.735Z,4.51
2022-12-11T15:37:27.007Z,4.33
2022-12-11T15:39:58.017Z,4.24
2022-12-11T15:42:28.654Z,4.28
2022-12-11T15:44:58.502Z,4.37
2022-12-11T15:47:30.260Z,4.31
2022-12-11T15:50:03.103Z,4.41
2022-12-11T15:52:35.260Z,4.43
2022-12-11T15:55:05.651Z,4.37
2022-12-11T15:57:36.385Z,4.28
2022-12-11T16:00:08.725Z,4.42
2022-12-11T16:02:38.380Z,4.43
2022-12-11T16:05:10.249Z,4.25
2022-12-11T16:07:40.120Z,4.24
2022-12-11T16:10:15.426Z,4.14
2022-12-11T16:12:45.086Z,4.09
2022-12-11T16:15:21.406Z,4.04
2022-12-11T16:18:02.451Z,3.97
2022-12-11T16:20:34.103Z,3.89
2022-12-11T16:23:08.348Z,3.93
2022-12-11T16:25:40.382Z,3.95
2022-12-11T16:28:13.458Z,3.95
2022-12-11T16:30:44.400Z,3.91
2022-12-11T16:33:15.551Z,3.81
2022-12-11T16:35:46.950Z,4.00
2022-12-11T16:38:16.960Z,4.03
2022-12-11T16:40:48.406Z,3.90
2022-12-11T16:43:17.563Z,3.99
2022-12-11T16:45:46.819Z,4.10
2022-12-11T16:48:16.149Z,4.33
2022-12-11T16:50:46.759Z,4.20
2022-12-11T16:53:17.806Z,4.28
2022-12-11T16:55:47.937Z,4.33
2022-12-11T16:58:20.454Z,4.18
2022-12-11T17:00:50.719Z,4.16
2022-12-11T17:03:20.932Z,4.28
2022-12-11T17:05:51.821Z,3.97
2022-12-11T17:08:22.284Z,4.28
2022-12-11T17:10:53.114Z,4.15
2022-12-11T17:13:22.890Z,4.13
2022-12-11T17:15:52.158Z,4.05
2022-12-11T17:18:22.120Z,4.02
2022-12-11T17:20:53.049Z,3.95
2022-12-11T17:23:23.039Z,3.62
2022-12-11T17:25:52.283Z,3.54
2022-12-11T17:28:21.534Z,3.61
2022-12-11T17:30:50.696Z,3.61
2022-12-11T17:33:23.075Z,3.52
2022-12-11T17:35:54.007Z,3.52
2022-12-11T17:38:23.407Z,3.59
2022-12-11T17:40:53.218Z,3.59
2022-12-11T17:43:22.810Z,3.59
2022-12-11T17:45:53.881Z,3.63
2022-12-11T17:48:23.578Z,3.61
2022-12-11T17:50:54.857Z,3.65
2022-12-11T17:53:26.691Z,3.61
2022-12-11T17:55:57.759Z,3.48
2022-12-11T17:58:27.025Z,3.62
2022-12-11T18:00:57.869Z,3.64
2022-12-11T18:03:27.878Z,3.46
2022-12-11T18:06:04.405Z,3.49
2022-12-11T18:08:34.113Z,3.43
2022-12-11T18:11:08.665Z,3.28
2022-12-11T18:13:38.100Z,3.27
2022-12-11T18:16:09.816Z,3.25
2022-12-11T18:18:39.951Z,3.22
2022-12-11T18:21:18.406Z,3.18
2022-12-11T18:23:50.225Z,3.11
2022-12-11T18:26:21.275Z,3.20
2022-12-11T18:28:52.113Z,3.25
2022-12-11T18:31:23.315Z,3.28
2022-12-11T18:33:53.424Z,3.24
2022-12-11T18:36:25.192Z,3.41
2022-12-11T18:38:55.202Z,3.38
2022-12-11T18:41:26.133Z,3.38
2022-12-11T18:43:57.255Z,3.39
2022-12-11T18:46:27.527Z,3.43
2022-12-11T18:48:58.698Z,3.47
2022-12-11T18:51:31.069Z,3.54
2022-12-11T18:54:00.651Z,3.54
2022-12-11T18:56:30.099Z,3.42
2022-12-11T18:58:59.476Z,3.47
2022-12-11T19:01:31.040Z,3.44
2022-12-11T19:04:05.573Z,3.50
2022-12-11T19:06:39.637Z,3.51
2022-12-11T19:09:10.602Z,3.45
2022-12-11T19:11:41.770Z,3.50
2022-12-11T19:14:13.054Z,3.47
2022-12-11T19:16:46.331Z,3.29
2022-12-11T19:19:19.169Z,3.34
2022-12-11T19:21:51.265Z,3.34
2022-12-11T19:24:23.321Z,3.34
2022-12-11T19:26:53.109Z,3.38
2022-12-11T19:29:24.339Z,3.43
2022-12-11T19:31:54.294Z,3.44
2022-12-11T19:34:24.302Z,3.48
2022-12-11T19:36:55.379Z,3.50
2022-12-11T19:39:25.794Z,3.44
2022-12-11T19:41:55.280Z,3.38
2022-12-11T19:44:25.903Z,3.23
2022-12-11T19:46:55.498Z,3.32
2022-12-11T19:49:25.454Z,3.27
2022-12-11T19:51:56.389Z,3.28
2022-12-11T19:54:27.268Z,3.31
2022-12-11T19:56:57.067Z,3.37
2022-12-11T19:59:26.996Z,3.31
2022-12-11T20:01:57.362Z,3.32
2022-12-11T20:04:26.856Z,3.32
2022-12-11T20:06:57.956Z,3.31
2022-12-11T20:09:28.122Z,3.26
2022-12-11T20:11:57.418Z,3.23
2022-12-11T20:14:27.827Z,3.27
2022-12-11T20:17:14.941Z,3.19
2022-12-11T20:19:45.628Z,3.15
2022-12-11T20:22:16.779Z,3.09
2022-12-11T20:24:47.368Z,3.07
2022-12-11T20:27:19.346Z,2.99
2022-12-11T20:29:49.777Z,2.95
2022-12-11T20:32:19.092Z,3.04
2022-12-11T20:34:48.602Z,3.13
2022-12-11T20:37:20.368Z,3.11
2022-12-11T20:39:54.662Z,3.16
2022-12-11T20:42:24.207Z,3.12
2022-12-11T20:44:54.210Z,3.07
2022-12-11T20:47:23.382Z,3.05
2022-12-11T20:49:53.848Z,2.98
2022-12-11T20:52:24.634Z,3.08
2022-12-11T20:54:54.279Z,3.13
2022-12-11T20:57:23.525Z,3.20
2022-12-11T20:59:52.701Z,3.18
2022-12-11T21:02:23.333Z,3.13
2022-12-11T21:04:54.396Z,3.25
2022-12-11T21:07:27.408Z,3.26
2022-12-11T21:09:58.387Z,3.24
2022-12-11T21:12:31.503Z,3.33
2022-12-11T21:15:00.688Z,3.34
2022-12-11T21:17:29.763Z,3.26
2022-12-11T21:19:59.684Z,3.19
2022-12-11T21:22:30.823Z,3.24
2022-12-11T21:25:00.033Z,3.21
2022-12-11T21:27:30.390Z,3.25
2022-12-11T21:29:59.784Z,3.22
2022-12-11T21:32:30.211Z,3.26
2022-12-11T21:35:00.518Z,3.23
2022-12-11T21:37:31.253Z,3.23
2022-12-11T21:40:00.533Z,3.26
2022-12-11T21:42:29.718Z,3.18
2022-12-11T21:47:48.703Z,3.27
2022-12-11T21:50:19.567Z,3.24
2022-12-11T21:52:50.627Z,3.31
2022-12-11T21:55:20.128Z,3.34
2022-12-11T21:57:49.250Z,3.31
2022-12-11T22:00:19.207Z,3.30
2022-12-11T22:02:48.638Z,3.26
2022-12-11T22:05:17.840Z,3.26
2022-12-11T22:07:47.268Z,3.25
2022-12-11T22:10:18.284Z,3.15
2022-12-11T22:12:48.053Z,3.16
2022-12-11T22:15:17.792Z,3.21
2022-12-11T22:17:46.966Z,3.15
2022-12-11T22:20:16.159Z,3.04
2022-12-11T22:22:45.355Z,3.02
2022-12-11T22:25:14.748Z,3.14
2022-12-11T22:27:45.451Z,3.25
2022-12-11T22:30:15.250Z,3.36
2022-12-11T22:32:45.430Z,3.42
2022-12-11T22:35:14.789Z,3.54
2022-12-11T22:37:44.777Z,3.57
2022-12-11T22:40:14.325Z,3.62
2022-12-11T22:42:45.745Z,3.68
2022-12-11T22:45:15.182Z,3.75
2022-12-11T22:47:44.136Z,3.73
2022-12-11T22:50:14.517Z,3.78
2022-12-11T22:52:44.979Z,3.83
2022-12-11T22:55:14.315Z,3.86
2022-12-11T22:57:44.982Z,3.87
2022-12-11T23:00:15.865Z,3.94
2022-12-11T23:02:48.945Z,3.97
2022-12-11T23:05:18.246Z,3.96
2022-12-11T23:07:48.880Z,3.99
2022-12-11T23:10:20.547Z,3.99
2022-12-11T23:12:51.156Z,3.91
2022-12-11T23:15:20.264Z,3.88
2022-12-11T23:17:49.330Z,3.93
2022-12-11T23:20:18.482Z,3.95
2022-12-11T23:22:48.109Z,3.91
2022-12-11T23:25:17.426Z,3.88
2022-12-11T23:27:47.631Z,3.93
2022-12-11T23:30:18.187Z,3.91
2022-12-11T23:32:47.296Z,3.77
2022-12-11T23:35:16.911Z,3.83
2022-12-11T23:37:46.947Z,3.71
2022-12-11T23:40:17.526Z,3.70
2022-12-11T23:42:47.271Z,3.71
2022-12-11T23:45:21.877Z,3.65
2022-12-11T23:47:51.389Z,3.63
2022-12-11T23:50:20.749Z,3.55
2022-12-11T23:52:50.320Z,3.49
2022-12-11T23:55:20.666Z,3.52
2022-12-11T23:57:50.610Z,3.49
